Time;durP1;ratioP1;P1;durP2;ratioP2;P2;SDS_P1;SDS_P2;PMS_P1;PMS_P2;Temp;Humidity;BMP_temperature;BMP_pressure;BME280_temperature;BME280_humidity;BME280_pressure;Samples;Min_cycle;Max_cycle;Signal;HPM_P1;HPM_P2
2023/05/03 00:01:00;;;;;;;6.93;6.30;;;;;;;8.87;100.00;101179.69;5030703;28;20199;-77
2023/05/03 00:03:26;;;;;;;7.60;6.40;;;;;;;8.84;100.00;101183.09;5032526;28;20587;-76
2023/05/03 00:05:52;;;;;;;6.77;6.20;;;;;;;8.85;100.00;101182.22;5031232;28;20197;-76
2023/05/03 00:08:17;;;;;;;7.33;6.63;;;;;;;8.88;100.00;101186.59;5032172;28;20238;-76
2023/05/03 00:10:42;;;;;;;6.93;6.33;;;;;;;8.79;100.00;101182.16;5032335;28;20264;-76
2023/05/03 00:13:08;;;;;;;6.87;6.37;;;;;;;8.77;100.00;101175.25;5032718;28;20221;-76
2023/05/03 00:15:33;;;;;;;7.80;7.10;;;;;;;8.79;100.00;101186.44;5030553;28;20642;-75
2023/05/03 00:17:58;;;;;;;7.80;7.03;;;;;;;8.74;100.00;101188.97;5029494;28;20365;-75
2023/05/03 00:20:24;;;;;;;7.13;6.43;;;;;;;8.72;100.00;101185.50;5030855;28;20716;-77
2023/05/03 00:22:50;;;;;;;8.30;7.37;;;;;;;8.71;100.00;101182.91;5014422;28;20215;-76
2023/05/03 00:25:15;;;;;;;7.97;7.37;;;;;;;8.66;100.00;101190.59;5029378;28;20303;-76
2023/05/03 00:27:41;;;;;;;7.90;7.20;;;;;;;8.65;100.00;101191.44;5031688;28;20329;-75
2023/05/03 00:30:06;;;;;;;9.10;7.90;;;;;;;8.61;100.00;101179.34;5010292;28;20192;-76
2023/05/03 00:32:32;;;;;;;8.37;7.17;;;;;;;8.57;100.00;101180.13;5030871;28;20917;-75
2023/05/03 00:34:57;;;;;;;8.13;7.30;;;;;;;8.52;100.00;101185.25;5011912;28;20376;-76
2023/05/03 00:37:24;;;;;;;7.77;7.17;;;;;;;8.49;100.00;101182.59;5016220;28;20192;-77
2023/05/03 00:39:49;;;;;;;7.83;7.17;;;;;;;8.47;100.00;101190.31;5029770;28;20213;-75
2023/05/03 00:42:15;;;;;;;8.37;7.57;;;;;;;8.50;100.00;101189.50;5030993;28;20249;-76
2023/05/03 00:44:40;;;;;;;8.77;7.87;;;;;;;8.47;100.00;101190.31;5014195;28;20615;-75
2023/05/03 00:47:06;;;;;;;8.00;7.30;;;;;;;8.45;100.00;101184.25;5030723;28;20217;-76
2023/05/03 00:49:32;;;;;;;7.93;7.23;;;;;;;8.43;100.00;101185.09;5030562;28;20195;-76
2023/05/03 00:51:58;;;;;;;7.90;7.20;;;;;;;8.39;100.00;101179.88;5012117;28;20676;-76
2023/05/03 00:54:26;;;;;;;8.20;7.50;;;;;;;8.34;100.00;101171.19;5032432;28;20198;-76
2023/05/03 00:56:52;;;;;;;8.27;7.53;;;;;;;8.31;100.00;101190.94;5031265;28;20196;-75
2023/05/03 00:59:18;;;;;;;8.83;7.93;;;;;;;8.28;100.00;101177.97;5028617;28;20240;-75
2023/05/03 01:01:47;;;;;;;8.27;7.57;;;;;;;8.25;100.00;101173.66;5028676;28;20297;-76
2023/05/03 01:04:12;;;;;;;8.97;8.17;;;;;;;8.21;100.00;101183.06;5029899;28;20201;-75
2023/05/03 01:06:38;;;;;;;8.53;7.73;;;;;;;8.19;100.00;101168.38;5030521;28;20597;-78
2023/05/03 01:09:40;;;;;;;8.47;7.67;;;;;;;8.14;100.00;101170.91;5032484;28;20247;-75
2023/05/03 01:12:18;;;;;;;8.90;8.00;;;;;;;8.09;100.00;101168.25;5032175;28;20232;-76
2023/05/03 01:15:08;;;;;;;9.17;7.93;;;;;;;8.04;100.00;101167.31;5030920;28;20195;-76
2023/05/03 01:17:38;;;;;;;8.70;7.80;;;;;;;7.99;100.00;101163.81;5030428;28;20297;-75
2023/05/03 01:20:09;;;;;;;9.07;8.17;;;;;;;7.97;100.00;101155.19;5030375;28;20195;-75
2023/05/03 01:22:55;;;;;;;8.30;7.60;;;;;;;7.96;100.00;101158.59;5015567;28;20313;-75
2023/05/03 01:25:20;;;;;;;8.53;7.73;;;;;;;7.94;100.00;101155.13;5011605;28;20186;-77
2023/05/03 01:27:46;;;;;;;8.70;7.90;;;;;;;7.91;100.00;101153.38;5030946;28;20276;-75
2023/05/03 01:30:12;;;;;;;8.73;7.83;;;;;;;7.89;100.00;101154.19;5032945;28;20254;-75
2023/05/03 01:33:02;;;;;;;8.33;7.63;;;;;;;7.85;100.00;101149.84;5025878;28;20224;-75
2023/05/03 01:35:29;;;;;;;8.20;7.50;;;;;;;7.83;100.00;101151.53;5025728;28;20179;-76
2023/05/03 01:37:56;;;;;;;8.60;7.90;;;;;;;7.78;100.00;101151.44;5011040;28;20191;-76
2023/05/03 01:40:23;;;;;;;8.13;7.43;;;;;;;7.76;100.00;101150.56;5030537;28;20189;-76
2023/05/03 01:42:51;;;;;;;8.47;7.70;;;;;;;7.75;100.00;101149.66;5030346;28;20256;-75
2023/05/03 01:45:17;;;;;;;8.93;8.03;;;;;;;7.73;100.00;101153.94;5028163;28;20672;-75
2023/05/03 01:47:42;;;;;;;8.50;7.70;;;;;;;7.72;100.00;101147.03;5011271;28;20218;-75
2023/05/03 01:50:08;;;;;;;9.20;8.03;;;;;;;7.70;100.00;101147.88;5015644;28;20188;-76
2023/05/03 01:52:33;;;;;;;9.03;8.13;;;;;;;7.64;100.00;101153.78;5023392;28;20239;-77
2023/05/03 01:54:59;;;;;;;8.43;7.63;;;;;;;7.59;100.00;101150.25;5029898;28;21128;-76
2023/05/03 01:57:24;;;;;;;9.10;8.23;;;;;;;7.56;100.00;101151.06;5011587;28;20210;-77
2023/05/03 01:59:49;;;;;;;8.87;8.07;;;;;;;7.55;100.00;101145.91;5027312;28;20206;-73
2023/05/03 02:02:15;;;;;;;8.77;8.00;;;;;;;7.52;100.00;101149.28;5027766;28;20275;-76
2023/05/03 02:04:40;;;;;;;10.57;8.27;;;;;;;7.50;100.00;101150.09;5011489;28;20209;-75
2023/05/03 02:07:06;;;;;;;9.20;8.07;;;;;;;7.47;100.00;101140.63;5025183;28;20215;-76
2023/05/03 02:09:31;;;;;;;8.73;7.93;;;;;;;7.41;100.00;101141.34;5030062;28;20223;-75
2023/05/03 02:11:56;;;;;;;8.57;7.90;;;;;;;7.37;100.00;101141.28;5029360;28;20315;-75
2023/05/03 02:14:22;;;;;;;9.80;8.63;;;;;;;7.35;100.00;101141.25;5006521;28;20658;-75
2023/05/03 02:16:47;;;;;;;9.80;8.77;;;;;;;7.32;100.00;101147.25;5024759;28;20245;-76
2023/05/03 02:19:12;;;;;;;10.53;9.23;;;;;;;7.33;100.00;101136.06;5026583;28;20692;-77
2023/05/03 02:21:38;;;;;;;8.67;7.97;;;;;;;7.28;100.00;101145.44;5024008;28;20656;-76
2023/05/03 02:24:03;;;;;;;8.90;8.20;;;;;;;7.21;100.00;101148.72;5028177;28;20190;-75
2023/05/03 02:26:29;;;;;;;9.67;8.57;;;;;;;7.20;100.00;101144.41;5027794;28;20188;-76
2023/05/03 02:28:57;;;;;;;8.87;8.00;;;;;;;7.18;100.00;101146.13;5006429;28;20200;-75
2023/05/03 02:31:23;;;;;;;9.57;8.57;;;;;;;7.14;100.00;101147.75;5027647;28;20187;-75
2023/05/03 02:33:49;;;;;;;9.47;8.63;;;;;;;7.14;100.00;101147.75;5029370;28;20550;-76
2023/05/03 02:36:15;;;;;;;9.80;8.53;;;;;;;7.10;100.00;101145.09;5025763;28;20200;-76
2023/05/03 02:38:40;;;;;;;9.97;8.97;;;;;;;7.07;100.00;101145.03;5027722;28;20177;-76
2023/05/03 02:41:05;;;;;;;10.33;9.23;;;;;;;7.04;100.00;101153.56;5028912;28;20278;-76
2023/05/03 02:43:30;;;;;;;9.40;8.53;;;;;;;7.01;100.00;101146.66;5011549;28;20213;-75
2023/05/03 02:45:56;;;;;;;9.40;8.60;;;;;;;6.96;100.00;101153.41;5030047;28;20183;-75
2023/05/03 02:48:21;;;;;;;10.00;9.10;;;;;;;6.94;100.00;101156.81;5030418;28;20353;-75
2023/05/03 02:50:47;;;;;;;9.90;8.90;;;;;;;6.92;100.00;101154.19;5023743;28;20197;-76
2023/05/03 02:53:12;;;;;;;9.80;8.80;;;;;;;6.86;100.00;101152.34;5022923;28;20216;-75
2023/05/03 02:55:38;;;;;;;9.80;8.90;;;;;;;6.84;100.00;101159.16;5026974;28;20194;-75
2023/05/03 02:58:04;;;;;;;9.43;8.53;;;;;;;6.82;100.00;101152.25;5009679;28;20180;-77
2023/05/03 03:00:29;;;;;;;10.07;9.17;;;;;;;6.82;100.00;101155.69;5024502;28;21135;-76
2023/05/03 03:02:54;;;;;;;9.67;8.20;;;;;;;6.77;100.00;101159.91;5012211;28;20263;-77
2023/05/03 03:05:20;;;;;;;9.40;8.50;;;;;;;6.73;100.00;101158.09;5035089;28;20191;-76
2023/05/03 03:07:46;;;;;;;10.43;9.37;;;;;;;6.71;100.00;101157.19;5029043;28;20286;-76
2023/05/03 03:10:11;;;;;;;9.23;8.43;;;;;;;6.67;100.00;101161.41;5033463;28;20181;-76
2023/05/03 03:12:37;;;;;;;9.67;8.83;;;;;;;6.68;100.00;101162.25;5032909;28;20215;-76
2023/05/03 03:15:03;;;;;;;10.03;9.03;;;;;;;6.66;100.00;101167.38;5034155;28;20180;-76
2023/05/03 03:17:30;;;;;;;10.07;8.80;;;;;;;6.63;100.00;101164.75;5015020;28;20184;-76
2023/05/03 03:19:57;;;;;;;9.93;9.03;;;;;;;6.60;100.00;101163.81;5029413;28;20191;-76
2023/05/03 03:22:22;;;;;;;10.33;9.33;;;;;;;6.55;100.00;101159.44;5014952;28;20212;-76
2023/05/03 03:24:47;;;;;;;10.30;9.33;;;;;;;6.55;100.00;101166.28;5031098;28;20276;-76
2023/05/03 03:27:13;;;;;;;9.77;8.77;;;;;;;6.56;100.00;101168.03;5031976;28;20212;-76
2023/05/03 03:29:39;;;;;;;11.07;9.67;;;;;;;6.54;100.00;101172.25;5035265;28;20188;-75
2023/05/03 03:32:04;;;;;;;12.00;9.27;;;;;;;6.49;100.00;101171.28;5013312;28;20362;-77
2023/05/03 03:34:30;;;;;;;11.43;10.27;;;;;;;6.49;100.00;101171.28;5033591;28;20189;-76
2023/05/03 03:36:56;;;;;;;10.70;9.37;;;;;;;6.47;100.00;101172.94;5034314;28;20204;-75
2023/05/03 03:39:21;;;;;;;11.73;10.00;;;;;;;6.44;100.00;101170.31;5018308;28;20193;-75
2023/05/03 03:41:46;;;;;;;12.67;9.77;;;;;;;6.42;100.00;101166.84;5033420;28;20216;-75
2023/05/03 03:44:11;;;;;;;10.10;8.97;;;;;;;6.46;100.00;101168.63;5033195;28;20201;-77
2023/05/03 03:46:37;;;;;;;12.10;9.97;;;;;;;6.38;100.00;101166.78;5014753;28;20189;-76
2023/05/03 03:49:02;;;;;;;11.00;9.83;;;;;;;6.34;100.00;101167.53;5034273;28;20344;-75
2023/05/03 03:51:27;;;;;;;13.37;10.37;;;;;;;6.32;100.00;101163.22;5015217;28;21178;-76
2023/05/03 03:53:53;;;;;;;11.20;10.10;;;;;;;6.31;100.00;101161.47;5019235;28;20184;-76
2023/05/03 03:56:18;;;;;;;14.63;10.73;;;;;;;6.28;100.00;101172.53;5034339;28;20193;-75
2023/05/03 03:58:44;;;;;;;12.17;10.83;;;;;;;6.28;100.00;101169.09;5014502;28;20189;-76
2023/05/03 04:01:11;;;;;;;13.00;11.17;;;;;;;6.24;100.00;101170.75;5018424;28;20183;-75
2023/05/03 04:03:36;;;;;;;12.57;10.57;;;;;;;6.22;100.00;101164.69;5030596;28;20190;-75
2023/05/03 04:06:01;;;;;;;12.23;10.93;;;;;;;6.24;100.00;101168.16;5018875;28;20188;-76
2023/05/03 04:08:27;;;;;;;12.33;11.03;;;;;;;6.24;100.00;101160.47;5035254;28;20313;-76
2023/05/03 04:10:52;;;;;;;11.57;10.37;;;;;;;6.20;100.00;101162.06;5018950;28;20625;-76
2023/05/03 04:13:17;;;;;;;11.93;10.73;;;;;;;6.26;100.00;101161.38;5015554;28;20751;-75
2023/05/03 04:15:43;;;;;;;13.10;11.17;;;;;;;6.28;100.00;101159.69;5033731;28;20694;-77
2023/05/03 04:18:08;;;;;;;11.87;10.77;;;;;;;6.31;100.00;101166.59;5034306;28;20659;-76
2023/05/03 04:20:34;;;;;;;12.20;11.00;;;;;;;6.38;100.00;101168.47;5012101;28;20197;-75
2023/05/03 04:22:59;;;;;;;11.97;10.70;;;;;;;6.44;100.00;101168.63;5031996;28;20212;-76
2023/05/03 04:25:25;;;;;;;13.40;11.43;;;;;;;6.46;100.00;101161.81;5031815;28;20191;-75
2023/05/03 04:27:51;;;;;;;13.03;10.93;;;;;;;6.51;100.00;101180.75;5033089;28;20197;-76
2023/05/03 04:30:16;;;;;;;12.77;11.47;;;;;;;6.56;100.00;101163.75;5036241;28;20272;-76
2023/05/03 04:32:42;;;;;;;13.90;12.37;;;;;;;6.60;100.00;101159.53;5029730;28;20249;-76
2023/05/03 04:35:09;;;;;;;13.33;11.00;;;;;;;6.58;100.00;101162.91;5018257;28;20212;-75
2023/05/03 04:37:39;;;;;;;11.90;10.37;;;;;;;6.58;100.00;101163.75;5015758;28;20188;-77
2023/05/03 04:40:07;;;;;;;11.43;10.30;;;;;;;6.59;100.00;101160.34;5029866;28;20199;-75
2023/05/03 04:42:33;;;;;;;12.33;10.83;;;;;;;6.64;100.00;101160.47;5032919;28;20204;-74
2023/05/03 04:44:58;;;;;;;12.30;10.60;;;;;;;6.67;100.00;101161.41;5031390;28;20868;-76
2023/05/03 04:47:24;;;;;;;12.93;11.27;;;;;;;6.73;100.00;101162.38;5034416;28;20242;-76
2023/05/03 04:49:50;;;;;;;13.60;11.23;;;;;;;6.79;100.00;101165.06;5034605;28;20209;-75
2023/05/03 04:52:15;;;;;;;12.03;10.70;;;;;;;6.91;100.00;101159.31;5012521;28;20358;-75
2023/05/03 04:54:40;;;;;;;11.30;10.20;;;;;;;6.94;100.00;101172.25;5013864;28;20653;-75
2023/05/03 04:57:06;;;;;;;12.17;10.90;;;;;;;6.92;100.00;101164.47;5016791;28;20725;-75
2023/05/03 04:59:31;;;;;;;11.47;10.40;;;;;;;6.95;100.00;101166.25;5033008;28;20190;-76
2023/05/03 05:01:56;;;;;;;12.17;10.23;;;;;;;7.00;100.00;101164.63;5031010;28;20215;-77
2023/05/03 05:04:22;;;;;;;13.07;10.70;;;;;;;7.11;100.00;101170.00;5013050;28;20194;-75
2023/05/03 05:06:50;;;;;;;11.40;10.17;;;;;;;7.15;100.00;101171.78;5030287;28;20190;-76
2023/05/03 05:09:24;;;;;;;11.30;9.80;;;;;;;7.26;100.00;101182.31;5029799;28;20201;-76
2023/05/03 05:11:50;;;;;;;10.27;9.27;;;;;;;7.32;100.00;101184.97;5031566;28;20211;-76
2023/05/03 05:14:16;;;;;;;11.33;9.87;;;;;;;7.40;100.00;101183.44;5032059;28;20207;-76
2023/05/03 05:16:41;;;;;;;11.00;9.43;;;;;;;7.60;100.00;101180.31;5025444;28;20246;-75
2023/05/03 05:19:07;;;;;;;77.37;20.33;;;;;;;7.93;100.00;101176.59;5030848;28;20244;-76
2023/05/03 05:21:33;;;;;;;15.90;10.77;;;;;;;8.37;100.00;101178.97;5030713;28;20212;-75
2023/05/03 05:23:58;;;;;;;66.27;21.27;;;;;;;8.93;100.00;101174.56;5030808;28;20307;-76
2023/05/03 05:26:25;;;;;;;44.97;16.10;;;;;;;9.37;100.00;101172.50;5027922;28;20192;-76
2023/05/03 05:28:51;;;;;;;75.30;22.37;;;;;;;10.13;100.00;101161.09;5027880;28;20293;-75
2023/05/03 05:31:16;;;;;;;35.40;13.17;;;;;;;10.64;96.65;101161.41;5032633;28;20212;-75
2023/05/03 05:33:42;;;;;;;9.53;8.40;;;;;;;11.12;94.33;101158.13;5032052;28;20191;-75
2023/05/03 05:36:07;;;;;;;8.93;8.10;;;;;;;11.69;92.07;101165.16;5008872;28;20182;-75
2023/05/03 05:38:33;;;;;;;8.77;7.87;;;;;;;11.95;90.40;101162.53;5034140;28;20195;-76
2023/05/03 05:40:58;;;;;;;8.20;7.47;;;;;;;12.39;88.21;101162.53;5033804;28;20251;-76
2023/05/03 05:43:23;;;;;;;10.57;7.67;;;;;;;12.57;86.63;101161.59;5032384;28;20286;-76
2023/05/03 05:45:49;;;;;;;8.77;7.97;;;;;;;12.34;86.77;101159.91;5032373;28;20252;-76
2023/05/03 05:48:14;;;;;;;8.33;7.53;;;;;;;12.34;87.82;101157.31;5029617;28;20204;-76
2023/05/03 05:50:39;;;;;;;8.23;7.43;;;;;;;12.37;87.49;101159.06;5026570;28;20205;-75
2023/05/03 05:53:05;;;;;;;8.07;7.27;;;;;;;12.58;86.56;101161.56;5033366;28;20203;-75
2023/05/03 05:55:30;;;;;;;8.47;7.67;;;;;;;12.95;85.91;101147.56;5016019;28;20204;-76
2023/05/03 05:57:55;;;;;;;9.37;8.40;;;;;;;12.70;86.22;101144.25;5032638;28;20186;-76
2023/05/03 06:00:21;;;;;;;8.67;7.67;;;;;;;13.03;85.37;101157.94;5028027;28;20198;-79
2023/05/03 06:02:47;;;;;;;14.53;9.23;;;;;;;13.03;85.66;101150.13;5030295;28;20225;-78
2023/05/03 06:05:13;;;;;;;16.77;9.30;;;;;;;13.37;83.57;101149.94;5033225;28;20219;-77
2023/05/03 06:07:38;;;;;;;9.83;7.80;;;;;;;13.48;83.02;101152.50;5015155;28;20913;-78
2023/05/03 06:10:04;;;;;;;9.80;7.80;;;;;;;13.50;82.96;101148.16;5017427;28;20196;-76
2023/05/03 06:12:29;;;;;;;8.83;7.80;;;;;;;13.54;82.79;101145.53;5010347;28;20273;-78
2023/05/03 06:14:55;;;;;;;10.90;7.03;;;;;;;14.17;81.09;101144.09;5008453;28;20937;-78
2023/05/03 06:17:22;;;;;;;7.70;7.00;;;;;;;14.10;80.92;101152.84;5026064;28;20320;-79
2023/05/03 06:19:48;;;;;;;9.60;7.50;;;;;;;13.92;81.22;101150.41;5026442;28;20756;-77
2023/05/03 06:22:14;;;;;;;8.57;7.20;;;;;;;14.23;81.12;101155.31;5005671;28;20241;-75
2023/05/03 06:24:39;;;;;;;8.83;7.93;;;;;;;14.26;80.67;101150.97;5024516;28;20214;-76
2023/05/03 06:27:05;;;;;;;12.43;8.10;;;;;;;15.05;77.81;101151.78;5026338;28;20242;-77
2023/05/03 06:29:30;;;;;;;18.33;8.27;;;;;;;15.26;77.58;101149.75;5025375;28;20203;-79
2023/05/03 06:31:55;;;;;;;45.50;15.80;;;;;;;15.53;77.04;101154.53;5031890;28;20713;-78
2023/05/03 06:34:21;;;;;;;17.67;8.90;;;;;;;15.55;76.25;101152.78;5007480;28;20612;-76
2023/05/03 06:36:47;;;;;;;10.43;8.07;;;;;;;15.33;77.14;101141.81;5032859;28;20524;-75
2023/05/03 06:39:12;;;;;;;12.83;7.83;;;;;;;14.88;78.02;101126.81;5030185;28;22205;-77
2023/05/03 06:41:38;;;;;;;20.30;8.80;;;;;;;15.30;77.75;101130.56;5029862;28;20207;-76
2023/05/03 06:44:03;;;;;;;24.00;9.57;;;;;;;15.64;76.88;101130.06;5016651;28;20239;-76
2023/05/03 06:46:29;;;;;;;9.50;8.60;;;;;;;15.35;77.71;101121.78;5024851;28;20195;-78
2023/05/03 06:48:56;;;;;;;8.97;8.07;;;;;;;15.61;77.10;101124.88;5052614;28;20202;-76
2023/05/03 06:51:26;;;;;;;14.03;9.37;;;;;;;15.16;78.20;101130.75;5034793;28;20183;-75
2023/05/03 06:53:52;;;;;;;9.03;8.20;;;;;;;15.53;78.09;101123.25;5034597;28;20262;-75
2023/05/03 06:56:17;;;;;;;9.83;8.80;;;;;;;15.30;78.41;101127.97;5035582;28;20214;-75
2023/05/03 06:58:42;;;;;;;8.73;7.93;;;;;;;15.75;77.52;101107.25;5034416;28;20218;-76
2023/05/03 07:01:08;;;;;;;9.87;8.57;;;;;;;15.45;78.16;101111.19;5035528;28;20178;-76
2023/05/03 07:03:33;;;;;;;9.83;8.90;;;;;;;15.13;78.88;101107.34;5031025;28;20237;-76
2023/05/03 07:05:59;;;;;;;9.80;8.83;;;;;;;14.93;80.19;101111.13;5035999;28;20671;-77
2023/05/03 07:08:24;;;;;;;9.73;8.93;;;;;;;15.01;80.36;101113.63;5033517;28;20199;-76
2023/05/03 07:10:49;;;;;;;10.40;9.33;;;;;;;15.03;80.85;101109.25;5009291;28;20183;-76
2023/05/03 07:13:14;;;;;;;9.60;8.67;;;;;;;14.83;82.20;101109.50;5032817;28;20205;-76
2023/05/03 07:15:40;;;;;;;9.97;9.07;;;;;;;14.87;81.99;101119.00;5034180;28;20993;-76
2023/05/03 07:18:06;;;;;;;9.53;8.67;;;;;;;14.85;81.99;101108.63;5015304;28;20628;-75
2023/05/03 07:20:31;;;;;;;9.93;9.03;;;;;;;14.66;82.24;101120.13;5030836;28;20180;-76
2023/05/03 07:22:57;;;;;;;9.87;8.87;;;;;;;14.84;81.99;101106.88;5030988;28;20214;-76
2023/05/03 07:25:22;;;;;;;11.07;9.30;;;;;;;14.62;82.35;101106.28;5029665;28;20199;-76
2023/05/03 07:27:48;;;;;;;10.83;8.60;;;;;;;14.70;82.69;101112.28;5031336;28;20205;-75
2023/05/03 07:30:13;;;;;;;9.40;8.43;;;;;;;14.86;82.96;101115.56;5031437;28;20194;-76
2023/05/03 07:32:39;;;;;;;10.63;9.37;;;;;;;14.54;83.87;101108.09;5012950;28;20225;-76
2023/05/03 07:35:06;;;;;;;9.77;8.87;;;;;;;14.36;84.71;101101.38;5031968;28;20179;-76
2023/05/03 07:37:31;;;;;;;10.33;9.43;;;;;;;14.28;84.49;101117.97;5014042;28;20217;-77
2023/05/03 07:39:56;;;;;;;12.63;10.37;;;;;;;14.19;85.60;101107.63;5030749;28;20182;-75
2023/05/03 07:42:22;;;;;;;10.67;9.57;;;;;;;14.13;86.18;101097.31;5030318;28;20195;-76
2023/05/03 07:44:47;;;;;;;10.00;8.97;;;;;;;14.32;85.79;101113.56;5012753;28;20175;-76
2023/05/03 07:47:12;;;;;;;10.53;9.17;;;;;;;14.12;86.13;101121.59;5030672;28;20197;-76
2023/05/03 07:49:38;;;;;;;11.50;10.40;;;;;;;13.86;87.67;101104.50;5035198;28;20189;-75
2023/05/03 07:52:03;;;;;;;10.70;9.67;;;;;;;13.90;87.69;101107.94;5022874;28;20213;-75
2023/05/03 07:54:28;;;;;;;10.17;9.30;;;;;;;13.77;88.41;101102.84;5027618;28;20254;-76
2023/05/03 07:56:54;;;;;;;11.93;10.73;;;;;;;13.64;88.07;101102.09;5032314;28;20218;-75
2023/05/03 07:59:19;;;;;;;10.77;9.67;;;;;;;13.51;88.52;101090.06;5033602;28;20853;-76
2023/05/03 08:01:45;;;;;;;11.60;9.57;;;;;;;13.36;89.47;101101.41;5009141;28;20197;-75
2023/05/03 08:04:10;;;;;;;12.07;10.40;;;;;;;13.30;90.14;101097.13;5012033;28;20211;-76
2023/05/03 08:06:37;;;;;;;11.67;9.57;;;;;;;13.41;90.34;101103.13;5032643;28;20188;-76
2023/05/03 08:09:03;;;;;;;15.30;9.83;;;;;;;13.41;90.45;101100.53;5031996;28;20330;-75
2023/05/03 08:11:29;;;;;;;11.30;10.07;;;;;;;13.34;90.67;101105.75;5033484;28;20185;-77
2023/05/03 08:13:55;;;;;;;10.83;9.73;;;;;;;13.29;90.43;101105.78;5020086;28;20179;-77
2023/05/03 08:16:20;;;;;;;11.33;10.27;;;;;;;13.42;90.39;101117.00;5028597;28;20172;-76
2023/05/03 08:18:45;;;;;;;29.80;12.93;;;;;;;13.41;91.08;101107.50;5032279;28;20198;-75
2023/05/03 08:21:12;;;;;;;11.87;10.63;;;;;;;13.49;91.43;101112.63;5034040;28;20187;-76
2023/05/03 08:23:38;;;;;;;13.37;10.20;;;;;;;13.57;90.53;101109.09;5030721;28;20256;-75
2023/05/03 08:26:06;;;;;;;32.80;13.53;;;;;;;13.70;90.84;101108.97;5013888;28;20925;-76
2023/05/03 08:28:31;;;;;;;13.97;10.13;;;;;;;13.66;90.73;101113.34;5033228;28;20219;-76
2023/05/03 08:30:57;;;;;;;11.40;10.30;;;;;;;13.76;91.35;101115.88;5033905;28;20277;-76
2023/05/03 08:33:22;;;;;;;11.23;10.13;;;;;;;13.75;90.95;101117.63;5030022;28;20308;-74
2023/05/03 08:35:48;;;;;;;10.53;9.53;;;;;;;13.80;90.82;101115.81;5016702;28;20273;-74
2023/05/03 08:38:14;;;;;;;14.37;10.60;;;;;;;13.79;90.74;101113.25;5032852;28;20178;-76
2023/05/03 08:40:40;;;;;;;16.53;11.20;;;;;;;13.81;90.09;101114.94;5009944;28;20572;-77
2023/05/03 08:43:08;;;;;;;29.13;12.80;;;;;;;13.90;90.56;101124.41;5031365;28;20602;-76
2023/05/03 08:45:33;;;;;;;16.43;11.07;;;;;;;13.82;90.24;101111.47;5028064;28;20183;-76
2023/05/03 08:48:01;;;;;;;16.47;10.77;;;;;;;13.86;90.21;101128.78;5035697;28;20271;-76
2023/05/03 08:50:27;;;;;;;34.73;13.23;;;;;;;13.93;90.68;101106.16;5032880;28;20640;-75
2023/05/03 08:52:52;;;;;;;12.90;10.50;;;;;;;13.96;90.54;101113.94;5023821;28;20266;-76
2023/05/03 08:55:18;;;;;;;12.27;10.83;;;;;;;13.90;89.89;101106.19;5034467;28;20209;-76
2023/05/03 08:57:43;;;;;;;14.07;10.83;;;;;;;13.92;90.41;101113.97;5018154;28;20720;-75
2023/05/03 09:00:13;;;;;;;12.83;10.90;;;;;;;13.90;90.49;101114.00;5030768;28;20213;-75
2023/05/03 09:02:39;;;;;;;18.77;12.67;;;;;;;13.93;91.07;101110.50;5027422;28;20219;-76
2023/05/03 09:05:31;;;;;;;20.97;12.90;;;;;;;13.97;90.08;101109.59;5031841;28;20594;-77
2023/05/03 09:08:06;;;;;;;15.57;11.63;;;;;;;14.06;89.85;101113.84;5017594;28;20226;-77
2023/05/03 09:10:35;;;;;;;13.93;10.57;;;;;;;14.02;89.97;101108.66;5032289;28;20189;-76
2023/05/03 09:13:01;;;;;;;12.80;9.90;;;;;;;14.10;90.56;101113.78;5024138;28;20195;-79
2023/05/03 09:15:30;;;;;;;34.97;16.53;;;;;;;14.15;90.34;101108.53;5026676;28;20271;-77
2023/05/03 09:18:25;;;;;;;12.30;11.00;;;;;;;14.22;89.64;101104.16;5027758;28;20172;-77
2023/05/03 09:20:51;;;;;;;11.73;10.53;;;;;;;14.26;90.51;101104.09;5006627;28;20210;-77
2023/05/03 09:23:25;;;;;;;25.67;13.10;;;;;;;14.31;90.27;101114.44;5029532;28;20218;-77
2023/05/03 09:25:51;;;;;;;40.80;15.40;;;;;;;14.36;89.72;101106.59;5012403;28;20201;-77
2023/05/03 09:28:18;;;;;;;18.10;11.20;;;;;;;14.50;90.04;101114.25;5012289;28;20219;-77
2023/05/03 09:30:45;;;;;;;12.23;10.37;;;;;;;14.41;89.21;101116.06;5031076;28;20183;-77
2023/05/03 09:33:11;;;;;;;10.70;9.70;;;;;;;14.58;89.31;101102.84;5034054;28;20261;-76
2023/05/03 09:35:37;;;;;;;27.07;13.40;;;;;;;14.62;89.88;101099.31;5029782;28;20650;-76
2023/05/03 09:38:04;;;;;;;12.90;10.07;;;;;;;14.63;88.62;101097.59;5008403;28;20556;-77
2023/05/03 09:40:30;;;;;;;9.67;8.77;;;;;;;14.73;88.70;101099.22;5012920;28;20199;-77
2023/05/03 09:43:10;;;;;;;14.80;9.93;;;;;;;14.94;89.15;101099.81;5023353;28;20223;-76
2023/05/03 09:45:36;;;;;;;13.23;10.70;;;;;;;15.01;88.73;101111.00;5022414;28;20242;-75
2023/05/03 09:48:03;;;;;;;12.00;10.20;;;;;;;15.07;88.07;101098.75;5032927;28;20286;-77
2023/05/03 09:50:33;;;;;;;9.73;8.57;;;;;;;15.31;87.37;101094.03;5021895;28;20181;-76
2023/05/03 09:53:02;;;;;;;15.33;10.37;;;;;;;15.45;86.72;101096.44;5029865;28;20711;-77
2023/05/03 09:55:31;;;;;;;11.53;9.43;;;;;;;15.37;86.67;101093.94;5029271;28;20194;-76
2023/05/03 09:57:56;;;;;;;13.10;10.23;;;;;;;15.55;86.79;101082.34;5023439;28;20186;-77
2023/05/03 10:00:24;;;;;;;10.47;9.37;;;;;;;15.79;85.68;101080.22;5028233;28;20184;-77
2023/05/03 10:02:53;;;;;;;12.70;9.60;;;;;;;15.69;85.85;101094.28;5032308;28;20213;-77
2023/05/03 10:05:20;;;;;;;13.30;9.63;;;;;;;15.56;85.76;101085.81;5031074;28;20327;-76
2023/05/03 10:07:50;;;;;;;11.23;9.17;;;;;;;15.65;86.32;101080.44;5020260;28;20208;-76
2023/05/03 10:10:16;;;;;;;10.60;9.33;;;;;;;15.79;86.80;101088.03;5030402;28;20185;-77
2023/05/03 10:12:43;;;;;;;12.00;9.43;;;;;;;15.79;85.78;101081.94;5031126;28;20210;-75
2023/05/03 10:15:11;;;;;;;10.17;9.17;;;;;;;15.78;85.50;101088.91;5030460;28;20255;-78
2023/05/03 10:17:38;;;;;;;11.80;9.20;;;;;;;15.77;85.74;101089.81;5027471;28;20188;-77
2023/05/03 10:20:23;;;;;;;10.13;8.90;;;;;;;15.89;86.66;101077.44;5011393;28;20447;-77
2023/05/03 10:23:04;;;;;;;11.00;10.00;;;;;;;15.99;85.81;101073.75;5029832;28;20297;-76
2023/05/03 10:25:30;;;;;;;10.10;9.23;;;;;;;16.11;84.86;101070.06;5024184;28;20572;-77
2023/05/03 10:28:07;;;;;;;8.83;7.93;;;;;;;16.32;84.21;101055.72;5023970;28;20595;-75
2023/05/03 10:30:39;;;;;;;10.30;9.30;;;;;;;16.33;84.23;101057.44;5027687;28;20207;-76
2023/05/03 10:33:10;;;;;;;11.43;10.33;;;;;;;16.18;83.63;101058.63;5031195;28;20754;-77
2023/05/03 10:35:38;;;;;;;11.90;10.70;;;;;;;16.12;84.02;101059.56;5028260;28;20253;-76
2023/05/03 10:38:21;;;;;;;10.37;9.37;;;;;;;16.27;85.01;101041.88;5024542;28;20187;-77
2023/05/03 10:40:46;;;;;;;11.63;10.50;;;;;;;16.30;84.72;101041.81;5028814;28;20186;-77
2023/05/03 10:43:41;;;;;;;12.60;10.87;;;;;;;16.22;82.59;101038.53;5030883;28;20212;-78
2023/05/03 10:46:28;;;;;;;10.77;9.63;;;;;;;16.20;83.18;101041.16;5010587;28;20210;-76
2023/05/03 10:49:17;;;;;;;9.40;8.40;;;;;;;16.49;84.94;101034.44;5029807;28;20206;-76
2023/05/03 10:51:44;;;;;;;11.50;10.30;;;;;;;16.58;82.06;101022.94;5026147;28;20226;-76
2023/05/03 10:54:09;;;;;;;10.70;9.70;;;;;;;16.57;81.59;101029.94;5023273;28;20188;-75
2023/05/03 10:56:50;;;;;;;9.20;8.30;;;;;;;16.59;81.38;101029.88;5030244;28;20658;-76
2023/05/03 10:59:15;;;;;;;9.90;8.13;;;;;;;16.75;80.90;101018.19;5028306;28;20191;-76
2023/05/03 11:01:44;;;;;;;9.67;8.70;;;;;;;16.86;80.48;101017.94;5032177;28;20210;-76
2023/05/03 11:04:21;;;;;;;10.50;9.50;;;;;;;17.00;79.14;101016.78;5029364;28;20211;-77
2023/05/03 11:06:50;;;;;;;10.97;8.73;;;;;;;17.15;79.59;101019.03;5006242;28;20185;-76
2023/05/03 11:09:16;;;;;;;12.67;9.60;;;;;;;17.15;79.38;101018.19;5012145;28;20627;-76
2023/05/03 11:11:42;;;;;;;15.40;9.03;;;;;;;17.19;79.33;101017.19;5010308;28;20205;-76
2023/05/03 11:14:09;;;;;;;10.20;8.07;;;;;;;17.30;78.52;101011.69;5027995;28;20639;-77
2023/05/03 11:16:35;;;;;;;9.33;8.30;;;;;;;17.21;76.80;101028.47;5031983;28;20192;-77